KGAI/GAI METAR and TAF weather

Enter ICAO airport designator
Station Type Date Time Source
KGAI METAR 2019/10/15 03:56 UTC NOAA

KGAI 150356Z AUTO 00000KT 10SM CLR 09/07 A3009 RMK AO2 SLP202 T00890067


Station Type Date Time Source
KGAI Decoded METAR 2019/10/15 03:56 UTC NOAA

Station name not available
Oct 14, 2019 - 11:56 PM EDT / 2019.10.15 0356 UTC
Wind: Calm:0
Visibility: 10 mile(s):0
Sky conditions: clear
Temperature: 48.0 F (8.9 C)
Dew Point: 44.1 F (6.7 C)
Relative Humidity: 86%
Pressure (altimeter): 30.09 in. Hg (1018 hPa)
ob: KGAI 150356Z AUTO 00000KT 10SM CLR 09/07 A3009 RMK AO2 SLP202 T00890067
cycle: 4

Station Type Date Time Source
KGAI TAF UTC NOAA

Error!

Example: see airport list